createdAt,value
2022-12-08T00:00:55.224Z,26.88
2022-12-08T00:03:22.319Z,29.30
2022-12-08T00:05:49.769Z,27.58
2022-12-08T00:08:16.612Z,30.27
2022-12-08T00:10:50.102Z,28.83
2022-12-08T00:13:16.976Z,28.30
2022-12-08T00:15:43.588Z,33.95
2022-12-08T00:18:10.281Z,30.40
2022-12-08T00:20:36.967Z,31.83
2022-12-08T00:23:03.930Z,30.83
2022-12-08T00:25:30.615Z,34.45
2022-12-08T00:27:58.771Z,33.60
2022-12-08T00:30:25.388Z,34.78
2022-12-08T00:32:52.197Z,33.78
2022-12-08T00:35:18.898Z,36.85
2022-12-08T00:37:45.690Z,31.92
2022-12-08T00:40:12.585Z,36.65
2022-12-08T00:42:39.453Z,36.47
2022-12-08T00:45:08.481Z,38.00
2022-12-08T00:47:35.202Z,36.63
2022-12-08T00:50:02.309Z,36.38
2022-12-08T00:52:29.320Z,37.20
2022-12-08T00:54:55.972Z,34.47
2022-12-08T00:57:22.728Z,36.50
2022-12-08T00:59:49.284Z,35.53
2022-12-08T01:02:17.270Z,35.28
2022-12-08T01:04:44.016Z,35.10
2022-12-08T01:07:10.807Z,36.25
2022-12-08T01:09:37.807Z,37.80
2022-12-08T01:12:05.216Z,40.63
2022-12-08T01:14:31.833Z,38.28
2022-12-08T01:16:58.597Z,37.58
2022-12-08T01:19:26.649Z,36.45
2022-12-08T01:21:53.335Z,36.10
2022-12-08T01:24:21.242Z,38.58
2022-12-08T01:26:49.510Z,37.92
2022-12-08T01:29:16.733Z,35.58
2022-12-08T01:31:43.673Z,40.30
2022-12-08T01:34:11.384Z,38.55
2022-12-08T01:36:39.655Z,34.70
2022-12-08T01:39:08.506Z,35.53
2022-12-08T01:41:37.236Z,34.45
2022-12-08T01:44:42.579Z,32.45
2022-12-08T01:47:09.753Z,35.17
2022-12-08T01:49:36.826Z,34.70
2022-12-08T01:52:11.037Z,36.75
2022-12-08T01:54:45.306Z,35.92
2022-12-08T01:57:15.920Z,36.28
2022-12-08T01:59:47.875Z,32.90
2022-12-08T02:02:14.971Z,35.38
2022-12-08T02:04:41.787Z,34.45
2022-12-08T02:07:11.976Z,33.28
2022-12-08T02:09:40.545Z,33.78
2022-12-08T02:12:08.231Z,30.30
2022-12-08T02:14:35.416Z,28.88
2022-12-08T02:17:10.273Z,28.88
2022-12-08T02:20:04.542Z,35.10
2022-12-08T02:22:39.893Z,33.45
2022-12-08T02:25:15.946Z,30.17
2022-12-08T02:27:55.762Z,29.70
2022-12-08T02:30:26.195Z,26.70
2022-12-08T02:33:24.600Z,30.25
2022-12-08T02:35:58.916Z,27.85
2022-12-08T02:38:36.408Z,30.13
2022-12-08T02:41:19.056Z,28.40
2022-12-08T02:43:49.585Z,28.58
2022-12-08T02:46:22.563Z,29.58
2022-12-08T02:48:51.647Z,27.83
2022-12-08T02:51:19.636Z,27.08
2022-12-08T02:53:47.065Z,26.63
2022-12-08T02:56:33.093Z,26.38
2022-12-08T02:59:23.877Z,23.38
2022-12-08T03:02:21.979Z,29.50
2022-12-08T03:04:58.278Z,28.33
2022-12-08T03:07:49.288Z,22.35
2022-12-08T03:10:29.831Z,25.98
2022-12-08T03:13:02.823Z,23.95
2022-12-08T03:15:33.380Z,25.33
2022-12-08T03:18:05.878Z,23.65
2022-12-08T03:20:42.675Z,23.05
2022-12-08T03:23:32.533Z,22.55
2022-12-08T03:26:27.124Z,21.75
2022-12-08T03:29:28.228Z,19.67
2022-12-08T03:32:00.291Z,22.38
2022-12-08T03:34:54.466Z,24.08
2022-12-08T03:37:28.289Z,18.67
2022-12-08T03:39:56.818Z,21.73
2022-12-08T03:42:23.845Z,21.52
2022-12-08T03:44:50.601Z,22.17
2022-12-08T03:47:17.615Z,21.70
2022-12-08T03:49:44.397Z,19.55
2022-12-08T03:52:17.282Z,21.58
2022-12-08T03:55:04.661Z,23.08
2022-12-08T03:57:34.501Z,21.95
2022-12-08T04:00:08.299Z,21.60
2022-12-08T04:02:40.023Z,22.55
2022-12-08T04:05:09.597Z,20.77
2022-12-08T04:07:37.985Z,21.48
2022-12-08T04:10:08.146Z,23.25
2022-12-08T04:12:34.799Z,23.60
2022-12-08T04:15:01.351Z,24.15
2022-12-08T04:17:27.915Z,23.67
2022-12-08T04:19:54.618Z,26.33
2022-12-08T04:22:21.314Z,24.70
2022-12-08T04:24:48.259Z,27.33
2022-12-08T04:27:16.212Z,27.70
2022-12-08T04:29:42.814Z,27.67
2022-12-08T04:32:09.718Z,32.72
2022-12-08T04:34:36.275Z,31.48
2022-12-08T04:37:02.916Z,29.75
2022-12-08T04:39:29.553Z,39.03
2022-12-08T04:41:56.184Z,35.50
2022-12-08T04:44:24.387Z,37.58
2022-12-08T04:46:51.034Z,37.78
2022-12-08T04:49:17.780Z,43.00
2022-12-08T04:51:44.387Z,42.67
2022-12-08T04:54:10.985Z,44.08
2022-12-08T04:56:38.191Z,42.65
2022-12-08T04:59:04.896Z,40.20
2022-12-08T05:01:33.025Z,43.70
2022-12-08T05:03:59.759Z,43.10
2022-12-08T05:06:26.552Z,44.35
2022-12-08T05:08:53.232Z,39.22
2022-12-08T05:11:19.797Z,39.08
2022-12-08T05:13:46.449Z,35.95
2022-12-08T05:16:15.186Z,36.40
2022-12-08T05:18:43.680Z,37.60
2022-12-08T05:21:10.607Z,37.45
2022-12-08T05:23:37.295Z,30.30
2022-12-08T05:26:04.219Z,31.30
2022-12-08T05:28:46.091Z,35.42
2022-12-08T05:31:14.691Z,31.75
2022-12-08T05:33:43.015Z,32.95
2022-12-08T05:36:11.440Z,31.15
2022-12-08T05:38:38.106Z,30.13
2022-12-08T05:41:06.275Z,31.77
2022-12-08T05:43:32.917Z,32.80
2022-12-08T05:45:59.660Z,35.90
2022-12-08T05:48:26.405Z,32.28
2022-12-08T05:50:54.408Z,31.67
2022-12-08T05:53:21.199Z,32.05
2022-12-08T05:55:48.104Z,31.48
2022-12-08T05:58:17.105Z,32.22
2022-12-08T06:00:44.516Z,30.17
2022-12-08T06:03:11.717Z,31.95
2022-12-08T06:05:38.555Z,28.75
2022-12-08T06:08:06.838Z,30.08
2022-12-08T06:10:33.768Z,31.88
2022-12-08T06:13:00.415Z,30.05
2022-12-08T06:15:27.013Z,33.10
2022-12-08T06:17:53.634Z,31.17
2022-12-08T06:20:20.305Z,27.98
2022-12-08T06:22:46.963Z,26.83
2022-12-08T06:25:15.133Z,28.25
2022-12-08T06:27:41.723Z,30.05
2022-12-08T06:30:09.011Z,23.33
2022-12-08T06:32:36.204Z,22.83
2022-12-08T06:35:03.177Z,25.80
2022-12-08T06:37:29.809Z,23.63
2022-12-08T06:39:56.452Z,24.83
2022-12-08T06:42:24.469Z,22.58
2022-12-08T06:44:51.452Z,21.55
2022-12-08T06:47:22.078Z,24.15
2022-12-08T06:49:51.305Z,23.60
2022-12-08T06:52:17.848Z,24.60
2022-12-08T06:54:44.478Z,25.65
2022-12-08T06:57:11.211Z,23.10
2022-12-08T06:59:40.222Z,25.30
2022-12-08T07:02:06.994Z,35.78
2022-12-08T07:04:33.728Z,30.27
2022-12-08T07:07:00.346Z,31.38
2022-12-08T07:09:26.982Z,32.35
2022-12-08T07:11:53.584Z,30.65
2022-12-08T07:14:20.254Z,26.10
2022-12-08T07:16:48.377Z,29.73
2022-12-08T07:19:15.334Z,34.03
2022-12-08T07:21:42.024Z,33.88
2022-12-08T07:24:08.866Z,34.05
2022-12-08T07:26:35.501Z,37.90
2022-12-08T07:29:02.118Z,32.90
2022-12-08T07:31:28.795Z,44.70
2022-12-08T07:33:57.135Z,39.85
2022-12-08T07:36:24.559Z,39.28
2022-12-08T07:38:51.614Z,36.60
2022-12-08T07:41:20.227Z,41.15
2022-12-08T07:43:47.129Z,36.78
2022-12-08T07:46:15.497Z,41.40
2022-12-08T07:48:42.964Z,41.50
2022-12-08T07:51:12.354Z,42.70
2022-12-08T07:53:42.300Z,40.20
2022-12-08T07:56:10.539Z,42.17
2022-12-08T07:58:37.273Z,47.15
2022-12-08T08:01:04.766Z,39.60
2022-12-08T08:03:31.631Z,42.78
2022-12-08T08:06:03.061Z,38.88
2022-12-08T08:08:31.880Z,38.30
2022-12-08T08:10:58.757Z,36.75
2022-12-08T08:13:25.402Z,34.35
2022-12-08T08:15:52.070Z,37.97
2022-12-08T08:18:18.709Z,32.67
2022-12-08T08:20:45.414Z,33.50
2022-12-08T08:23:12.167Z,33.10
2022-12-08T08:25:40.105Z,36.42
2022-12-08T08:28:06.713Z,30.02
2022-12-08T08:30:33.332Z,27.75
2022-12-08T08:33:00.578Z,31.08
2022-12-08T08:35:27.292Z,29.88
2022-12-08T08:37:53.930Z,29.27
2022-12-08T08:40:20.533Z,27.08
2022-12-08T08:42:48.593Z,30.85
2022-12-08T08:45:15.443Z,28.10
2022-12-08T08:47:42.197Z,27.13
2022-12-08T08:50:09.193Z,30.30
2022-12-08T08:52:36.057Z,28.92
2022-12-08T08:55:02.916Z,32.13
2022-12-08T08:57:29.513Z,34.35
2022-12-08T08:59:57.489Z,29.25
2022-12-08T09:02:24.157Z,27.77
2022-12-08T09:04:51.002Z,26.95
2022-12-08T09:07:17.733Z,26.42
2022-12-08T09:09:44.364Z,31.40
2022-12-08T09:12:14.148Z,34.70
2022-12-08T09:14:40.934Z,29.60
2022-12-08T09:17:09.304Z,29.23
2022-12-08T09:19:35.922Z,30.90
2022-12-08T09:22:02.715Z,27.55
2022-12-08T09:24:29.351Z,24.33
2022-12-08T09:26:55.894Z,30.20
2022-12-08T09:29:22.582Z,28.10
2022-12-08T09:31:49.261Z,28.70
2022-12-08T09:34:46.455Z,26.42
2022-12-08T09:37:17.972Z,31.05
2022-12-08T09:39:44.603Z,23.20
2022-12-08T09:42:47.506Z,27.17
2022-12-08T09:45:16.809Z,25.58
2022-12-08T09:47:47.903Z,26.52
2022-12-08T09:50:22.684Z,25.23
2022-12-08T09:52:55.547Z,25.63
2022-12-08T09:55:25.377Z,27.55
2022-12-08T09:58:00.550Z,27.83
2022-12-08T10:00:27.293Z,26.67
2022-12-08T10:02:55.913Z,25.42
2022-12-08T10:05:26.424Z,27.08
2022-12-08T10:08:04.361Z,24.48
2022-12-08T10:10:39.246Z,21.10
2022-12-08T10:13:38.037Z,25.98
2022-12-08T10:18:55.674Z,23.83
2022-12-08T10:21:28.483Z,27.33
2022-12-08T10:23:59.905Z,26.02
2022-12-08T10:26:26.631Z,25.90
2022-12-08T10:28:53.351Z,23.77
2022-12-08T10:31:22.606Z,24.98
2022-12-08T10:33:55.012Z,20.23
2022-12-08T10:36:23.251Z,26.15
2022-12-08T10:38:49.948Z,22.67
2022-12-08T10:41:16.750Z,24.67
2022-12-08T10:43:47.172Z,19.35
2022-12-08T10:46:18.177Z,21.13
2022-12-08T10:48:50.868Z,22.30
2022-12-08T10:53:54.039Z,20.10
2022-12-08T10:56:25.377Z,22.05
2022-12-08T10:59:06.681Z,18.13
2022-12-08T11:01:37.723Z,16.20
2022-12-08T11:04:07.258Z,14.70
2022-12-08T11:06:37.367Z,17.65
2022-12-08T11:09:07.076Z,17.42
2022-12-08T11:11:45.103Z,18.10
2022-12-08T11:14:19.244Z,16.00
2022-12-08T11:16:46.138Z,15.93
2022-12-08T11:19:16.366Z,19.95
2022-12-08T11:21:45.456Z,17.17
2022-12-08T11:24:22.712Z,16.58
2022-12-08T11:26:53.901Z,17.80
2022-12-08T11:29:21.044Z,18.50
2022-12-08T11:31:53.326Z,19.33
2022-12-08T11:34:30.400Z,16.30
2022-12-08T11:36:59.476Z,18.25
2022-12-08T11:39:28.358Z,19.35
2022-12-08T11:41:57.386Z,18.70
2022-12-08T11:44:35.604Z,18.20
2022-12-08T11:47:11.010Z,16.83
2022-12-08T11:49:39.308Z,17.65
2022-12-08T11:52:17.415Z,15.63
2022-12-08T11:54:49.689Z,16.33
2022-12-08T11:57:16.345Z,15.43
2022-12-08T11:59:45.601Z,19.42
2022-12-08T12:02:17.015Z,16.38
2022-12-08T12:04:50.070Z,16.77
2022-12-08T12:07:50.722Z,17.70
2022-12-08T12:10:40.983Z,21.33
2022-12-08T12:13:28.671Z,14.55
2022-12-08T12:16:16.726Z,17.92
2022-12-08T12:18:46.216Z,19.75
2022-12-08T12:21:18.412Z,16.40
2022-12-08T12:23:51.522Z,21.15
2022-12-08T12:26:21.535Z,20.33
2022-12-08T12:28:51.419Z,18.48
2022-12-08T12:31:21.558Z,16.75
2022-12-08T12:33:50.160Z,16.42
2022-12-08T12:36:17.193Z,20.02
2022-12-08T12:38:49.340Z,16.90
2022-12-08T12:41:25.478Z,16.63
2022-12-08T12:44:22.251Z,19.42
2022-12-08T12:46:58.026Z,16.75
2022-12-08T12:49:50.387Z,18.23
2022-12-08T12:52:42.704Z,18.52
2022-12-08T12:55:28.688Z,22.73
2022-12-08T12:57:56.642Z,23.27
2022-12-08T13:00:25.518Z,17.13
2022-12-08T13:02:54.446Z,20.60
2022-12-08T13:05:24.384Z,20.23
2022-12-08T13:07:55.095Z,16.40
2022-12-08T13:10:24.142Z,15.27
2022-12-08T13:13:17.736Z,19.10
2022-12-08T13:15:50.631Z,17.55
2022-12-08T13:18:20.745Z,17.70
2022-12-08T13:20:51.689Z,18.23
2022-12-08T13:23:41.788Z,16.27
2022-12-08T13:26:20.430Z,21.90
2022-12-08T13:29:18.534Z,18.05
2022-12-08T13:31:50.924Z,18.25
2022-12-08T13:34:29.707Z,17.73
2022-12-08T13:37:20.633Z,18.10
2022-12-08T13:39:51.215Z,17.00
2022-12-08T13:42:23.346Z,16.08
2022-12-08T13:45:21.450Z,22.45
2022-12-08T13:48:20.358Z,20.63
2022-12-08T13:59:08.220Z,21.27
2022-12-08T14:01:43.914Z,19.13
2022-12-08T14:07:04.967Z,19.15
2022-12-08T14:09:35.934Z,15.88
2022-12-08T14:12:05.825Z,15.10
2022-12-08T14:17:24.102Z,17.13
2022-12-08T14:19:56.649Z,15.90
2022-12-08T14:24:51.969Z,16.10
2022-12-08T14:27:21.446Z,16.05
2022-12-08T14:29:50.981Z,15.75
2022-12-08T14:32:28.746Z,16.10
2022-12-08T14:34:59.289Z,17.30
2022-12-08T14:37:27.662Z,15.00
2022-12-08T14:39:58.698Z,17.02
2022-12-08T14:42:27.926Z,16.77
2022-12-08T14:45:05.576Z,14.25
2022-12-08T14:47:34.609Z,14.45
2022-12-08T14:50:03.509Z,17.83
2022-12-08T14:52:30.975Z,13.77
2022-12-08T14:54:58.341Z,15.65
2022-12-08T14:57:33.660Z,18.02
2022-12-08T15:00:08.627Z,18.60
2022-12-08T15:02:44.241Z,18.85
2022-12-08T15:05:14.729Z,19.67
2022-12-08T15:07:47.088Z,25.17
2022-12-08T15:10:22.808Z,20.88
2022-12-08T15:13:01.654Z,23.23
2022-12-08T15:15:29.461Z,24.45
2022-12-08T15:18:11.432Z,22.70
2022-12-08T15:20:41.845Z,23.73
2022-12-08T15:23:20.384Z,24.27
2022-12-08T15:25:47.065Z,24.55
2022-12-08T15:28:15.792Z,22.52
2022-12-08T15:30:42.675Z,22.30
2022-12-08T15:33:10.669Z,28.10
2022-12-08T15:35:40.895Z,23.83
2022-12-08T15:38:16.608Z,21.85
2022-12-08T15:40:43.256Z,22.73
2022-12-08T15:43:10.617Z,29.17
2022-12-08T15:45:38.029Z,26.95
2022-12-08T15:48:05.370Z,23.60
2022-12-08T15:50:33.296Z,26.65
2022-12-08T15:52:59.968Z,24.98
2022-12-08T15:55:26.951Z,28.40
2022-12-08T16:00:52.259Z,21.65
2022-12-08T16:04:02.644Z,22.95
2022-12-08T16:09:11.773Z,22.63
2022-12-08T16:12:05.342Z,22.10
2022-12-08T16:17:13.861Z,20.48
2022-12-08T16:19:40.598Z,24.10
2022-12-08T16:22:56.455Z,22.58
2022-12-08T16:25:17.809Z,24.48
2022-12-08T16:28:12.294Z,19.67
2022-12-08T16:30:33.198Z,22.48
2022-12-08T16:32:59.788Z,20.58
2022-12-08T16:35:26.348Z,20.67
2022-12-08T16:37:54.289Z,24.77
2022-12-08T16:40:21.404Z,21.63
2022-12-08T16:42:47.962Z,23.35
2022-12-08T16:45:17.312Z,18.25
2022-12-08T16:47:46.386Z,21.13
2022-12-08T16:50:15.143Z,19.75
2022-12-08T16:52:42.034Z,24.30
2022-12-08T16:55:11.395Z,24.85
2022-12-08T16:57:38.730Z,20.95
2022-12-08T17:00:08.175Z,22.38
2022-12-08T17:02:35.221Z,23.13
2022-12-08T17:05:01.892Z,23.88
2022-12-08T17:07:28.562Z,24.67
2022-12-08T17:09:55.160Z,20.55
2022-12-08T17:12:23.141Z,20.15
2022-12-08T17:14:49.813Z,26.70
2022-12-08T17:17:16.442Z,22.90
2022-12-08T17:19:43.088Z,27.63
2022-12-08T17:22:09.657Z,22.10
2022-12-08T17:24:37.548Z,23.65
2022-12-08T17:27:04.643Z,22.88
2022-12-08T17:29:33.456Z,23.52
2022-12-08T17:32:00.549Z,21.90
2022-12-08T17:34:27.244Z,27.42
2022-12-08T17:36:53.845Z,20.58
2022-12-08T17:39:20.527Z,23.52
2022-12-08T17:41:47.562Z,23.33
2022-12-08T17:44:16.370Z,18.08
2022-12-08T17:46:50.692Z,20.30
2022-12-08T17:49:21.313Z,21.83
2022-12-08T17:51:48.795Z,19.33
2022-12-08T17:54:16.001Z,17.33
2022-12-08T17:56:42.861Z,17.40
2022-12-08T17:59:10.554Z,23.60
2022-12-08T18:01:37.393Z,20.90
2022-12-08T18:04:06.976Z,20.27
2022-12-08T18:06:34.529Z,17.52
2022-12-08T18:09:01.637Z,19.23
2022-12-08T18:11:29.141Z,24.00
2022-12-08T18:13:55.955Z,24.13
2022-12-08T18:16:24.900Z,21.33
2022-12-08T18:18:51.808Z,19.98
2022-12-08T18:21:23.233Z,25.13
2022-12-08T18:23:50.875Z,19.50
2022-12-08T18:26:17.595Z,20.75
2022-12-08T18:28:44.268Z,25.10
2022-12-08T18:31:12.520Z,23.17
2022-12-08T18:33:40.542Z,26.25
2022-12-08T18:36:08.966Z,28.48
2022-12-08T18:38:37.324Z,22.85
2022-12-08T18:41:05.511Z,18.60
2022-12-08T18:43:32.148Z,24.42
2022-12-08T18:46:01.428Z,21.50
2022-12-08T18:48:28.181Z,20.08
2022-12-08T18:50:54.806Z,21.20
2022-12-08T18:53:21.507Z,22.70
2022-12-08T18:55:49.430Z,23.15
2022-12-08T18:58:16.099Z,21.15
2022-12-08T19:00:42.709Z,23.02
2022-12-08T19:03:09.522Z,27.70
2022-12-08T19:05:36.239Z,22.13
2022-12-08T19:08:04.281Z,21.40
2022-12-08T19:10:30.923Z,20.02
2022-12-08T19:12:58.948Z,21.48
2022-12-08T19:15:25.615Z,20.15
2022-12-08T19:17:52.353Z,21.10
2022-12-08T19:20:19.161Z,23.77
2022-12-08T19:22:45.789Z,24.60
2022-12-08T19:25:12.353Z,21.55
2022-12-08T19:27:38.969Z,19.23
2022-12-08T19:30:09.938Z,20.65
2022-12-08T19:32:36.675Z,19.58
2022-12-08T19:35:03.560Z,22.55
2022-12-08T19:37:30.540Z,20.13
2022-12-08T19:39:57.113Z,20.38
2022-12-08T19:42:24.301Z,15.98
2022-12-08T19:44:50.939Z,19.67
2022-12-08T19:47:19.080Z,19.55
2022-12-08T19:49:45.798Z,18.95
2022-12-08T19:52:12.448Z,19.20
2022-12-08T19:54:39.125Z,20.60
2022-12-08T19:57:05.713Z,17.77
2022-12-08T19:59:32.460Z,18.05
2022-12-08T20:01:59.572Z,21.38
2022-12-08T20:04:27.765Z,19.23
2022-12-08T20:06:55.685Z,19.20
2022-12-08T20:09:23.185Z,21.70
2022-12-08T20:11:50.125Z,19.67
2022-12-08T20:14:17.665Z,21.60
2022-12-08T20:16:44.481Z,20.67
2022-12-08T20:19:11.201Z,22.45
2022-12-08T20:21:40.468Z,20.05
2022-12-08T20:24:07.366Z,20.23
2022-12-08T20:26:34.038Z,23.88
2022-12-08T20:29:00.587Z,23.15
2022-12-08T20:31:28.729Z,20.33
2022-12-08T20:33:55.374Z,20.17
2022-12-08T20:36:22.319Z,20.20
2022-12-08T20:38:51.785Z,25.60
2022-12-08T20:41:19.496Z,22.30
2022-12-08T20:43:47.445Z,21.27
2022-12-08T20:46:16.492Z,23.92
2022-12-08T20:48:43.537Z,19.00
2022-12-08T20:51:13.096Z,22.50
2022-12-08T20:53:39.757Z,23.80
2022-12-08T20:56:08.457Z,23.65
2022-12-08T20:58:35.066Z,23.40
2022-12-08T21:01:08.635Z,24.35
2022-12-08T21:03:35.343Z,29.63
2022-12-08T21:06:02.303Z,25.17
2022-12-08T21:08:29.070Z,27.02
2022-12-08T21:10:56.746Z,25.60
2022-12-08T21:13:25.016Z,25.60
2022-12-08T21:15:51.662Z,26.60
2022-12-08T21:18:18.964Z,28.65
2022-12-08T21:20:46.085Z,29.20
2022-12-08T21:23:12.940Z,27.67
2022-12-08T21:25:41.020Z,29.15
2022-12-08T21:28:08.419Z,31.92
2022-12-08T21:30:38.011Z,26.00
2022-12-08T21:33:04.889Z,24.55
2022-12-08T21:35:31.826Z,24.58
2022-12-08T21:37:58.633Z,27.75
2022-12-08T21:40:25.759Z,24.90
2022-12-08T21:42:53.040Z,26.83
2022-12-08T21:45:21.089Z,25.15
2022-12-08T21:47:49.797Z,30.17
2022-12-08T21:50:17.715Z,28.02
2022-12-08T21:52:47.578Z,28.00
2022-12-08T21:55:16.051Z,29.85
2022-12-08T21:57:42.822Z,27.13
2022-12-08T22:00:14.010Z,27.88
2022-12-08T22:02:40.784Z,32.00
2022-12-08T22:05:09.910Z,33.40
2022-12-08T22:07:38.946Z,31.23
2022-12-08T22:10:06.931Z,33.40
2022-12-08T22:12:34.377Z,33.25
2022-12-08T22:15:01.085Z,31.92
2022-12-08T22:17:27.865Z,34.47
2022-12-08T22:19:54.750Z,32.22
2022-12-08T22:22:23.023Z,33.88
2022-12-08T22:24:49.752Z,36.20
2022-12-08T22:27:16.542Z,29.50
2022-12-08T22:29:44.122Z,38.25
2022-12-08T22:32:10.753Z,34.22
2022-12-08T22:34:37.455Z,36.25
2022-12-08T22:37:04.191Z,35.70
2022-12-08T22:39:32.198Z,37.75
2022-12-08T22:41:58.764Z,35.53
2022-12-08T22:44:25.300Z,36.90
2022-12-08T22:46:51.970Z,32.78
2022-12-08T22:49:18.659Z,34.15
2022-12-08T22:51:45.437Z,39.90
2022-12-08T22:54:12.165Z,34.47
2022-12-08T22:56:40.097Z,40.45
2022-12-08T22:59:06.682Z,39.75
2022-12-08T23:01:34.124Z,32.63
2022-12-08T23:04:01.389Z,37.15
2022-12-08T23:06:29.245Z,33.33
2022-12-08T23:08:56.598Z,33.10
2022-12-08T23:11:25.446Z,34.60
2022-12-08T23:13:53.368Z,32.95
2022-12-08T23:16:20.248Z,33.65
2022-12-08T23:18:47.025Z,35.65
2022-12-08T23:21:16.904Z,35.60
2022-12-08T23:23:43.818Z,33.58
2022-12-08T23:26:16.989Z,32.58
2022-12-08T23:28:43.742Z,32.15
2022-12-08T23:31:11.869Z,33.10
2022-12-08T23:33:38.696Z,32.58
2022-12-08T23:36:05.954Z,36.05
2022-12-08T23:38:33.025Z,34.40
2022-12-08T23:41:01.065Z,35.08
2022-12-08T23:43:27.676Z,35.15
2022-12-08T23:45:54.649Z,34.28
2022-12-08T23:48:22.818Z,37.28
2022-12-08T23:50:49.792Z,40.40
2022-12-08T23:53:16.679Z,37.47
2022-12-08T23:55:43.245Z,37.55
2022-12-08T23:58:10.475Z,34.97
